sensor_id;sensor_type;location;lat;lon;timestamp;temperature;humidity
4828;DHT22;2428;48.732;9.148;2022-07-18T00:01:30;18.10;99.90
4828;DHT22;2428;48.732;9.148;2022-07-18T00:03:56;18.10;99.90
4828;DHT22;2428;48.732;9.148;2022-07-18T00:06:22;18.00;99.90
4828;DHT22;2428;48.732;9.148;2022-07-18T00:08:48;18.00;99.90
4828;DHT22;2428;48.732;9.148;2022-07-18T00:11:14;18.00;99.90
4828;DHT22;2428;48.732;9.148;2022-07-18T00:13:40;17.90;99.90
4828;DHT22;2428;48.732;9.148;2022-07-18T00:16:06;17.80;99.90
4828;DHT22;2428;48.732;9.148;2022-07-18T00:18:32;17.80;99.90
4828;DHT22;2428;48.732;9.148;2022-07-18T00:20:57;17.80;99.90
4828;DHT22;2428;48.732;9.148;2022-07-18T00:23:23;17.70;99.90
4828;DHT22;2428;48.732;9.148;2022-07-18T00:25:48;17.70;99.90
4828;DHT22;2428;48.732;9.148;2022-07-18T00:28:14;17.60;99.90
4828;DHT22;2428;48.732;9.148;2022-07-18T00:30:40;17.60;99.90
4828;DHT22;2428;48.732;9.148;2022-07-18T00:33:06;17.50;99.90
4828;DHT22;2428;48.732;9.148;2022-07-18T00:35:32;17.50;99.90
4828;DHT22;2428;48.732;9.148;2022-07-18T00:37:58;17.40;99.90
4828;DHT22;2428;48.732;9.148;2022-07-18T00:40:24;17.40;99.90
4828;DHT22;2428;48.732;9.148;2022-07-18T00:42:49;17.40;99.90
4828;DHT22;2428;48.732;9.148;2022-07-18T00:45:15;17.40;99.90
4828;DHT22;2428;48.732;9.148;2022-07-18T00:47:41;17.40;99.90
4828;DHT22;2428;48.732;9.148;2022-07-18T00:50:08;17.40;99.90
4828;DHT22;2428;48.732;9.148;2022-07-18T00:52:35;17.30;99.90
4828;DHT22;2428;48.732;9.148;2022-07-18T00:55:03;17.30;99.90
4828;DHT22;2428;48.732;9.148;2022-07-18T00:57:29;17.30;99.90
4828;DHT22;2428;48.732;9.148;2022-07-18T00:59:55;17.30;99.90
4828;DHT22;2428;48.732;9.148;2022-07-18T01:02:39;17.30;99.90
4828;DHT22;2428;48.732;9.148;2022-07-18T01:05:06;17.30;99.90
4828;DHT22;2428;48.732;9.148;2022-07-18T01:07:34;17.20;99.90
4828;DHT22;2428;48.732;9.148;2022-07-18T01:10:00;17.20;99.90
4828;DHT22;2428;48.732;9.148;2022-07-18T01:12:26;17.20;99.90
4828;DHT22;2428;48.732;9.148;2022-07-18T01:14:52;17.20;99.90
4828;DHT22;2428;48.732;9.148;2022-07-18T01:17:19;17.20;99.90
4828;DHT22;2428;48.732;9.148;2022-07-18T01:19:45;17.10;99.90
4828;DHT22;2428;48.732;9.148;2022-07-18T01:22:13;17.10;99.90
4828;DHT22;2428;48.732;9.148;2022-07-18T01:24:39;17.10;99.90
4828;DHT22;2428;48.732;9.148;2022-07-18T01:27:06;17.10;99.90
4828;DHT22;2428;48.732;9.148;2022-07-18T01:29:32;17.00;99.90
4828;DHT22;2428;48.732;9.148;2022-07-18T01:32:04;17.00;99.90
4828;DHT22;2428;48.732;9.148;2022-07-18T01:34:30;16.90;99.90
4828;DHT22;2428;48.732;9.148;2022-07-18T01:36:56;16.90;99.90
4828;DHT22;2428;48.732;9.148;2022-07-18T01:39:21;16.80;99.90
4828;DHT22;2428;48.732;9.148;2022-07-18T01:41:57;16.80;99.90
4828;DHT22;2428;48.732;9.148;2022-07-18T01:44:24;16.80;99.90
4828;DHT22;2428;48.732;9.148;2022-07-18T01:46:50;16.80;99.90
4828;DHT22;2428;48.732;9.148;2022-07-18T01:49:17;16.80;99.90
4828;DHT22;2428;48.732;9.148;2022-07-18T01:51:51;16.80;99.90
4828;DHT22;2428;48.732;9.148;2022-07-18T01:54:20;16.80;99.90
4828;DHT22;2428;48.732;9.148;2022-07-18T01:56:45;16.80;99.90
4828;DHT22;2428;48.732;9.148;2022-07-18T01:59:11;16.70;99.90
4828;DHT22;2428;48.732;9.148;2022-07-18T02:01:37;16.70;99.90
4828;DHT22;2428;48.732;9.148;2022-07-18T02:04:03;16.70;99.90
4828;DHT22;2428;48.732;9.148;2022-07-18T02:06:29;16.70;99.90
4828;DHT22;2428;48.732;9.148;2022-07-18T02:08:55;16.60;99.90
4828;DHT22;2428;48.732;9.148;2022-07-18T02:11:20;16.60;99.90
4828;DHT22;2428;48.732;9.148;2022-07-18T02:13:46;16.60;99.90
4828;DHT22;2428;48.732;9.148;2022-07-18T02:16:12;16.60;99.90
4828;DHT22;2428;48.732;9.148;2022-07-18T02:18:37;16.60;99.90
4828;DHT22;2428;48.732;9.148;2022-07-18T02:21:03;16.50;99.90
4828;DHT22;2428;48.732;9.148;2022-07-18T02:23:29;16.50;99.90
4828;DHT22;2428;48.732;9.148;2022-07-18T02:25:55;16.40;99.90
4828;DHT22;2428;48.732;9.148;2022-07-18T02:28:21;16.40;99.90
4828;DHT22;2428;48.732;9.148;2022-07-18T02:30:47;16.30;99.90
4828;DHT22;2428;48.732;9.148;2022-07-18T02:33:15;16.30;99.90
4828;DHT22;2428;48.732;9.148;2022-07-18T02:35:40;16.30;99.90
4828;DHT22;2428;48.732;9.148;2022-07-18T02:38:07;16.30;99.90
4828;DHT22;2428;48.732;9.148;2022-07-18T02:40:32;16.20;99.90
4828;DHT22;2428;48.732;9.148;2022-07-18T02:42:58;16.20;99.90
4828;DHT22;2428;48.732;9.148;2022-07-18T02:45:24;16.20;99.90
4828;DHT22;2428;48.732;9.148;2022-07-18T02:47:50;16.20;99.90
4828;DHT22;2428;48.732;9.148;2022-07-18T02:50:16;16.10;99.90
4828;DHT22;2428;48.732;9.148;2022-07-18T02:52:42;16.00;99.90
4828;DHT22;2428;48.732;9.148;2022-07-18T02:55:10;16.00;99.90
4828;DHT22;2428;48.732;9.148;2022-07-18T02:57:36;16.00;99.90
4828;DHT22;2428;48.732;9.148;2022-07-18T03:00:04;16.00;99.90
4828;DHT22;2428;48.732;9.148;2022-07-18T03:02:30;16.00;99.90
4828;DHT22;2428;48.732;9.148;2022-07-18T03:04:56;16.00;99.90
4828;DHT22;2428;48.732;9.148;2022-07-18T03:07:22;16.00;99.90
4828;DHT22;2428;48.732;9.148;2022-07-18T03:09:47;15.90;99.90
4828;DHT22;2428;48.732;9.148;2022-07-18T03:12:13;15.90;99.90
4828;DHT22;2428;48.732;9.148;2022-07-18T03:14:39;15.90;99.90
4828;DHT22;2428;48.732;9.148;2022-07-18T03:17:04;15.90;99.90
4828;DHT22;2428;48.732;9.148;2022-07-18T03:19:30;15.90;99.90
4828;DHT22;2428;48.732;9.148;2022-07-18T03:21:56;15.90;99.90
4828;DHT22;2428;48.732;9.148;2022-07-18T03:24:21;15.90;99.90
4828;DHT22;2428;48.732;9.148;2022-07-18T03:26:47;15.90;99.90
4828;DHT22;2428;48.732;9.148;2022-07-18T03:29:13;15.90;99.90
4828;DHT22;2428;48.732;9.148;2022-07-18T03:31:39;15.90;99.90
4828;DHT22;2428;48.732;9.148;2022-07-18T03:34:05;15.90;99.90
4828;DHT22;2428;48.732;9.148;2022-07-18T03:36:31;15.90;99.90
4828;DHT22;2428;48.732;9.148;2022-07-18T03:38:57;15.90;99.90
4828;DHT22;2428;48.732;9.148;2022-07-18T03:41:23;15.90;99.90
4828;DHT22;2428;48.732;9.148;2022-07-18T03:43:48;15.80;99.90
4828;DHT22;2428;48.732;9.148;2022-07-18T03:46:14;15.80;99.90
4828;DHT22;2428;48.732;9.148;2022-07-18T03:48:40;15.80;99.90
4828;DHT22;2428;48.732;9.148;2022-07-18T03:51:06;15.80;99.90
4828;DHT22;2428;48.732;9.148;2022-07-18T03:53:32;15.70;99.90
4828;DHT22;2428;48.732;9.148;2022-07-18T03:55:58;15.70;99.90
4828;DHT22;2428;48.732;9.148;2022-07-18T03:58:24;15.70;99.90
4828;DHT22;2428;48.732;9.148;2022-07-18T04:00:49;15.70;99.90
4828;DHT22;2428;48.732;9.148;2022-07-18T04:03:16;15.70;99.90
4828;DHT22;2428;48.732;9.148;2022-07-18T04:05:43;15.70;99.90
4828;DHT22;2428;48.732;9.148;2022-07-18T04:08:09;15.70;99.90
4828;DHT22;2428;48.732;9.148;2022-07-18T04:10:35;15.70;99.90
4828;DHT22;2428;48.732;9.148;2022-07-18T04:13:01;15.80;99.90
4828;DHT22;2428;48.732;9.148;2022-07-18T04:15:27;15.70;99.90
4828;DHT22;2428;48.732;9.148;2022-07-18T04:17:52;15.70;99.90
4828;DHT22;2428;48.732;9.148;2022-07-18T04:20:19;15.70;99.90
4828;DHT22;2428;48.732;9.148;2022-07-18T04:25:18;16.00;99.90
4828;DHT22;2428;48.732;9.148;2022-07-18T04:27:45;16.10;99.90
4828;DHT22;2428;48.732;9.148;2022-07-18T04:30:10;16.20;99.90
4828;DHT22;2428;48.732;9.148;2022-07-18T04:32:37;16.30;99.90
4828;DHT22;2428;48.732;9.148;2022-07-18T04:35:03;16.40;99.90
4828;DHT22;2428;48.732;9.148;2022-07-18T04:37:29;16.40;99.90
4828;DHT22;2428;48.732;9.148;2022-07-18T04:39:56;16.50;99.90
4828;DHT22;2428;48.732;9.148;2022-07-18T04:42:22;16.50;99.90
4828;DHT22;2428;48.732;9.148;2022-07-18T04:44:47;16.50;99.90
4828;DHT22;2428;48.732;9.148;2022-07-18T04:47:13;16.60;99.90
4828;DHT22;2428;48.732;9.148;2022-07-18T04:49:39;16.60;99.90
4828;DHT22;2428;48.732;9.148;2022-07-18T04:52:04;16.70;99.90
4828;DHT22;2428;48.732;9.148;2022-07-18T04:54:30;16.70;99.90
4828;DHT22;2428;48.732;9.148;2022-07-18T04:56:56;16.70;99.90
4828;DHT22;2428;48.732;9.148;2022-07-18T04:59:21;16.80;99.90
4828;DHT22;2428;48.732;9.148;2022-07-18T05:01:47;16.80;99.90
4828;DHT22;2428;48.732;9.148;2022-07-18T05:04:12;16.80;99.90
4828;DHT22;2428;48.732;9.148;2022-07-18T05:06:38;16.90;99.90
4828;DHT22;2428;48.732;9.148;2022-07-18T05:09:04;16.90;99.90
4828;DHT22;2428;48.732;9.148;2022-07-18T05:11:29;16.90;99.90
4828;DHT22;2428;48.732;9.148;2022-07-18T05:13:55;16.90;99.90
4828;DHT22;2428;48.732;9.148;2022-07-18T05:16:21;17.00;99.90
4828;DHT22;2428;48.732;9.148;2022-07-18T05:18:47;17.00;99.90
4828;DHT22;2428;48.732;9.148;2022-07-18T05:21:12;17.00;99.90
4828;DHT22;2428;48.732;9.148;2022-07-18T05:23:38;17.10;99.90
4828;DHT22;2428;48.732;9.148;2022-07-18T05:26:04;17.10;99.90
4828;DHT22;2428;48.732;9.148;2022-07-18T05:28:30;17.10;99.90
4828;DHT22;2428;48.732;9.148;2022-07-18T05:30:56;17.10;99.90
4828;DHT22;2428;48.732;9.148;2022-07-18T05:33:21;17.20;99.90
4828;DHT22;2428;48.732;9.148;2022-07-18T05:35:47;17.20;99.90
4828;DHT22;2428;48.732;9.148;2022-07-18T05:38:13;17.30;99.90
4828;DHT22;2428;48.732;9.148;2022-07-18T05:40:39;17.40;99.90
4828;DHT22;2428;48.732;9.148;2022-07-18T05:43:04;17.40;99.90
4828;DHT22;2428;48.732;9.148;2022-07-18T05:45:30;17.50;99.90
4828;DHT22;2428;48.732;9.148;2022-07-18T05:47:56;17.60;99.90
4828;DHT22;2428;48.732;9.148;2022-07-18T05:50:23;17.60;99.90
4828;DHT22;2428;48.732;9.148;2022-07-18T05:52:49;17.70;99.90
4828;DHT22;2428;48.732;9.148;2022-07-18T05:55:14;17.70;99.90
4828;DHT22;2428;48.732;9.148;2022-07-18T05:57:41;17.80;99.90
4828;DHT22;2428;48.732;9.148;2022-07-18T06:00:08;17.80;99.90
4828;DHT22;2428;48.732;9.148;2022-07-18T06:02:35;17.90;99.90
4828;DHT22;2428;48.732;9.148;2022-07-18T06:05:00;17.90;99.90
4828;DHT22;2428;48.732;9.148;2022-07-18T06:07:26;18.00;99.90
4828;DHT22;2428;48.732;9.148;2022-07-18T06:09:51;18.00;99.90
4828;DHT22;2428;48.732;9.148;2022-07-18T06:12:17;18.10;99.90
4828;DHT22;2428;48.732;9.148;2022-07-18T06:14:43;18.20;99.90
4828;DHT22;2428;48.732;9.148;2022-07-18T06:17:09;18.20;99.90
4828;DHT22;2428;48.732;9.148;2022-07-18T06:19:34;18.30;99.90
4828;DHT22;2428;48.732;9.148;2022-07-18T06:22:01;18.40;99.90
4828;DHT22;2428;48.732;9.148;2022-07-18T06:24:27;18.50;99.90
4828;DHT22;2428;48.732;9.148;2022-07-18T06:26:52;18.50;99.90
4828;DHT22;2428;48.732;9.148;2022-07-18T06:29:18;18.60;99.90
4828;DHT22;2428;48.732;9.148;2022-07-18T06:31:44;18.70;99.90
4828;DHT22;2428;48.732;9.148;2022-07-18T06:34:09;18.70;99.90
4828;DHT22;2428;48.732;9.148;2022-07-18T06:36:35;18.80;99.90
4828;DHT22;2428;48.732;9.148;2022-07-18T06:39:00;18.90;99.90
4828;DHT22;2428;48.732;9.148;2022-07-18T06:41:33;19.00;99.90
4828;DHT22;2428;48.732;9.148;2022-07-18T06:43:59;19.10;99.90
4828;DHT22;2428;48.732;9.148;2022-07-18T06:46:25;19.20;99.90
4828;DHT22;2428;48.732;9.148;2022-07-18T06:48:50;19.30;99.90
4828;DHT22;2428;48.732;9.148;2022-07-18T06:51:16;19.40;99.90
4828;DHT22;2428;48.732;9.148;2022-07-18T06:53:42;19.40;99.90
4828;DHT22;2428;48.732;9.148;2022-07-18T06:56:07;19.50;99.90
4828;DHT22;2428;48.732;9.148;2022-07-18T06:58:33;19.60;99.90
4828;DHT22;2428;48.732;9.148;2022-07-18T07:00:59;19.70;99.90
4828;DHT22;2428;48.732;9.148;2022-07-18T07:03:25;19.80;99.90
4828;DHT22;2428;48.732;9.148;2022-07-18T07:05:50;19.90;99.90
4828;DHT22;2428;48.732;9.148;2022-07-18T07:08:16;20.00;99.90
4828;DHT22;2428;48.732;9.148;2022-07-18T07:10:42;20.20;99.90
4828;DHT22;2428;48.732;9.148;2022-07-18T07:13:08;20.30;99.90
4828;DHT22;2428;48.732;9.148;2022-07-18T07:15:34;20.40;99.90
4828;DHT22;2428;48.732;9.148;2022-07-18T07:17:59;20.40;99.90
4828;DHT22;2428;48.732;9.148;2022-07-18T07:20:25;20.50;99.90
4828;DHT22;2428;48.732;9.148;2022-07-18T07:22:55;20.50;99.90
4828;DHT22;2428;48.732;9.148;2022-07-18T07:25:23;20.70;99.90
4828;DHT22;2428;48.732;9.148;2022-07-18T07:27:49;20.70;99.90
4828;DHT22;2428;48.732;9.148;2022-07-18T07:30:15;20.80;99.90
4828;DHT22;2428;48.732;9.148;2022-07-18T07:32:43;20.90;99.90
4828;DHT22;2428;48.732;9.148;2022-07-18T07:35:10;21.00;99.90
4828;DHT22;2428;48.732;9.148;2022-07-18T07:37:55;21.10;99.90
4828;DHT22;2428;48.732;9.148;2022-07-18T07:40:22;21.20;99.90
4828;DHT22;2428;48.732;9.148;2022-07-18T07:42:50;21.30;99.90
4828;DHT22;2428;48.732;9.148;2022-07-18T07:45:16;21.40;99.90
4828;DHT22;2428;48.732;9.148;2022-07-18T07:47:42;21.40;97.00
4828;DHT22;2428;48.732;9.148;2022-07-18T07:50:09;21.40;95.80
4828;DHT22;2428;48.732;9.148;2022-07-18T07:52:34;21.50;99.10
4828;DHT22;2428;48.732;9.148;2022-07-18T07:55:00;21.50;97.80
4828;DHT22;2428;48.732;9.148;2022-07-18T07:57:26;21.60;98.90
4828;DHT22;2428;48.732;9.148;2022-07-18T07:59:52;21.60;96.10
4828;DHT22;2428;48.732;9.148;2022-07-18T08:02:18;21.70;97.30
4828;DHT22;2428;48.732;9.148;2022-07-18T08:04:44;21.70;95.80
4828;DHT22;2428;48.732;9.148;2022-07-18T08:07:09;21.80;95.30
4828;DHT22;2428;48.732;9.148;2022-07-18T08:09:35;21.80;95.50
4828;DHT22;2428;48.732;9.148;2022-07-18T08:12:01;22.00;95.70
4828;DHT22;2428;48.732;9.148;2022-07-18T08:14:26;22.10;95.10
4828;DHT22;2428;48.732;9.148;2022-07-18T08:16:52;22.10;94.30
4828;DHT22;2428;48.732;9.148;2022-07-18T08:19:18;22.20;95.10
4828;DHT22;2428;48.732;9.148;2022-07-18T08:21:43;22.30;94.70
4828;DHT22;2428;48.732;9.148;2022-07-18T08:24:09;22.40;95.50
4828;DHT22;2428;48.732;9.148;2022-07-18T08:26:35;22.50;94.70
4828;DHT22;2428;48.732;9.148;2022-07-18T08:29:05;22.50;94.30
4828;DHT22;2428;48.732;9.148;2022-07-18T08:31:30;22.60;96.40
4828;DHT22;2428;48.732;9.148;2022-07-18T08:33:56;22.60;95.80
4828;DHT22;2428;48.732;9.148;2022-07-18T08:36:22;22.70;96.10
4828;DHT22;2428;48.732;9.148;2022-07-18T08:38:48;22.70;94.30
4828;DHT22;2428;48.732;9.148;2022-07-18T08:41:16;22.80;93.60
4828;DHT22;2428;48.732;9.148;2022-07-18T08:43:43;23.00;92.70
4828;DHT22;2428;48.732;9.148;2022-07-18T08:46:10;23.30;92.40
4828;DHT22;2428;48.732;9.148;2022-07-18T08:48:37;23.50;94.20
4828;DHT22;2428;48.732;9.148;2022-07-18T08:51:05;23.50;93.90
4828;DHT22;2428;48.732;9.148;2022-07-18T08:53:31;23.50;92.50
4828;DHT22;2428;48.732;9.148;2022-07-18T08:55:59;23.50;91.90
4828;DHT22;2428;48.732;9.148;2022-07-18T08:58:25;23.50;91.40
4828;DHT22;2428;48.732;9.148;2022-07-18T09:00:51;23.50;92.50
4828;DHT22;2428;48.732;9.148;2022-07-18T09:03:17;23.70;92.60
4828;DHT22;2428;48.732;9.148;2022-07-18T09:05:42;23.90;90.20
4828;DHT22;2428;48.732;9.148;2022-07-18T09:08:12;24.00;90.00
4828;DHT22;2428;48.732;9.148;2022-07-18T09:13:23;24.30;91.80
4828;DHT22;2428;48.732;9.148;2022-07-18T09:16:09;24.30;90.20
4828;DHT22;2428;48.732;9.148;2022-07-18T09:18:41;24.30;90.40
4828;DHT22;2428;48.732;9.148;2022-07-18T09:21:19;24.40;85.70
4828;DHT22;2428;48.732;9.148;2022-07-18T09:23:47;24.50;86.60
4828;DHT22;2428;48.732;9.148;2022-07-18T09:29:05;24.70;86.30
4828;DHT22;2428;48.732;9.148;2022-07-18T09:31:31;24.80;84.00
4828;DHT22;2428;48.732;9.148;2022-07-18T09:34:02;25.00;79.10
4828;DHT22;2428;48.732;9.148;2022-07-18T09:36:29;25.00;82.60
4828;DHT22;2428;48.732;9.148;2022-07-18T09:38:55;25.10;76.80
4828;DHT22;2428;48.732;9.148;2022-07-18T09:41:26;25.20;78.20
4828;DHT22;2428;48.732;9.148;2022-07-18T09:43:52;25.40;84.70
4828;DHT22;2428;48.732;9.148;2022-07-18T09:46:18;25.40;82.00
4828;DHT22;2428;48.732;9.148;2022-07-18T09:48:44;25.50;80.10
4828;DHT22;2428;48.732;9.148;2022-07-18T09:51:09;25.60;77.60
4828;DHT22;2428;48.732;9.148;2022-07-18T09:53:45;25.70;74.30
4828;DHT22;2428;48.732;9.148;2022-07-18T09:56:13;25.80;80.00
4828;DHT22;2428;48.732;9.148;2022-07-18T09:58:41;26.00;81.90
4828;DHT22;2428;48.732;9.148;2022-07-18T10:01:09;26.10;72.80
4828;DHT22;2428;48.732;9.148;2022-07-18T10:03:36;26.30;77.60
4828;DHT22;2428;48.732;9.148;2022-07-18T10:06:03;26.70;78.70
4828;DHT22;2428;48.732;9.148;2022-07-18T10:08:31;26.90;69.60
4828;DHT22;2428;48.732;9.148;2022-07-18T10:10:59;27.10;68.20
4828;DHT22;2428;48.732;9.148;2022-07-18T10:13:27;27.30;73.50
4828;DHT22;2428;48.732;9.148;2022-07-18T10:15:53;27.60;71.50
4828;DHT22;2428;48.732;9.148;2022-07-18T10:18:25;27.90;72.80
4828;DHT22;2428;48.732;9.148;2022-07-18T10:21:10;28.20;64.70
4828;DHT22;2428;48.732;9.148;2022-07-18T10:23:42;28.40;65.50
4828;DHT22;2428;48.732;9.148;2022-07-18T10:26:21;28.70;62.50
4828;DHT22;2428;48.732;9.148;2022-07-18T10:31:30;30.40;61.60
4828;DHT22;2428;48.732;9.148;2022-07-18T10:39:21;33.70;54.20
4828;DHT22;2428;48.732;9.148;2022-07-18T11:00:15;40.20;44.00
4828;DHT22;2428;48.732;9.148;2022-07-18T11:02:42;39.40;41.50
4828;DHT22;2428;48.732;9.148;2022-07-18T11:23:46;38.90;36.10
4828;DHT22;2428;48.732;9.148;2022-07-18T11:26:17;38.90;39.00
4828;DHT22;2428;48.732;9.148;2022-07-18T11:28:43;38.40;38.30
4828;DHT22;2428;48.732;9.148;2022-07-18T11:31:12;38.40;38.70
4828;DHT22;2428;48.732;9.148;2022-07-18T11:33:40;37.90;38.20
4828;DHT22;2428;48.732;9.148;2022-07-18T11:36:08;38.20;40.40
4828;DHT22;2428;48.732;9.148;2022-07-18T11:38:36;38.00;40.30
4828;DHT22;2428;48.732;9.148;2022-07-18T11:41:03;37.80;39.30
4828;DHT22;2428;48.732;9.148;2022-07-18T11:43:29;37.90;40.70
4828;DHT22;2428;48.732;9.148;2022-07-18T11:46:05;37.90;39.90
4828;DHT22;2428;48.732;9.148;2022-07-18T11:48:32;38.00;40.60
4828;DHT22;2428;48.732;9.148;2022-07-18T11:50:59;37.90;39.90
4828;DHT22;2428;48.732;9.148;2022-07-18T11:53:25;37.30;39.80
4828;DHT22;2428;48.732;9.148;2022-07-18T11:55:52;36.90;37.10
4828;DHT22;2428;48.732;9.148;2022-07-18T11:58:18;36.40;36.10
4828;DHT22;2428;48.732;9.148;2022-07-18T12:00:45;35.80;36.70
4828;DHT22;2428;48.732;9.148;2022-07-18T12:03:13;36.10;38.20
4828;DHT22;2428;48.732;9.148;2022-07-18T12:05:44;36.20;40.60
4828;DHT22;2428;48.732;9.148;2022-07-18T12:19:06;37.10;38.60
4828;DHT22;2428;48.732;9.148;2022-07-18T12:26:48;37.10;38.00
4828;DHT22;2428;48.732;9.148;2022-07-18T12:29:13;37.50;40.40
4828;DHT22;2428;48.732;9.148;2022-07-18T12:34:14;37.30;36.60
4828;DHT22;2428;48.732;9.148;2022-07-18T12:36:54;37.10;35.90
4828;DHT22;2428;48.732;9.148;2022-07-18T12:39:29;36.90;36.90
4828;DHT22;2428;48.732;9.148;2022-07-18T12:41:56;36.30;36.40
4828;DHT22;2428;48.732;9.148;2022-07-18T12:44:22;35.90;36.50
4828;DHT22;2428;48.732;9.148;2022-07-18T12:46:47;35.80;38.70
4828;DHT22;2428;48.732;9.148;2022-07-18T12:49:13;35.80;39.80
4828;DHT22;2428;48.732;9.148;2022-07-18T12:51:39;35.80;39.40
4828;DHT22;2428;48.732;9.148;2022-07-18T12:54:04;35.70;39.80
4828;DHT22;2428;48.732;9.148;2022-07-18T12:56:30;35.00;38.90
4828;DHT22;2428;48.732;9.148;2022-07-18T12:58:56;34.50;41.30
4828;DHT22;2428;48.732;9.148;2022-07-18T13:01:22;34.20;42.30
4828;DHT22;2428;48.732;9.148;2022-07-18T13:03:48;34.10;43.10
4828;DHT22;2428;48.732;9.148;2022-07-18T13:06:13;34.00;43.60
4828;DHT22;2428;48.732;9.148;2022-07-18T13:08:39;33.80;42.70
4828;DHT22;2428;48.732;9.148;2022-07-18T13:11:05;33.90;42.80
4828;DHT22;2428;48.732;9.148;2022-07-18T13:13:30;33.80;40.70
4828;DHT22;2428;48.732;9.148;2022-07-18T13:15:56;33.50;41.80
4828;DHT22;2428;48.732;9.148;2022-07-18T13:18:22;33.40;42.40
4828;DHT22;2428;48.732;9.148;2022-07-18T13:20:48;33.40;42.70
4828;DHT22;2428;48.732;9.148;2022-07-18T13:23:14;33.50;43.50
4828;DHT22;2428;48.732;9.148;2022-07-18T13:25:41;33.50;43.30
4828;DHT22;2428;48.732;9.148;2022-07-18T13:28:07;33.40;42.10
4828;DHT22;2428;48.732;9.148;2022-07-18T13:30:33;33.50;42.90
4828;DHT22;2428;48.732;9.148;2022-07-18T13:32:59;33.50;43.60
4828;DHT22;2428;48.732;9.148;2022-07-18T13:35:24;33.50;43.60
4828;DHT22;2428;48.732;9.148;2022-07-18T13:37:50;33.50;44.40
4828;DHT22;2428;48.732;9.148;2022-07-18T13:40:16;33.50;46.20
4828;DHT22;2428;48.732;9.148;2022-07-18T13:42:42;33.40;42.40
4828;DHT22;2428;48.732;9.148;2022-07-18T13:45:08;33.40;41.90
4828;DHT22;2428;48.732;9.148;2022-07-18T13:47:34;33.30;42.80
4828;DHT22;2428;48.732;9.148;2022-07-18T13:50:00;33.30;43.40
4828;DHT22;2428;48.732;9.148;2022-07-18T13:52:26;33.10;43.30
4828;DHT22;2428;48.732;9.148;2022-07-18T13:54:52;33.20;44.60
4828;DHT22;2428;48.732;9.148;2022-07-18T13:57:20;33.10;44.80
4828;DHT22;2428;48.732;9.148;2022-07-18T13:59:46;33.20;46.70
4828;DHT22;2428;48.732;9.148;2022-07-18T14:02:12;33.10;41.70
4828;DHT22;2428;48.732;9.148;2022-07-18T14:04:37;33.30;45.30
4828;DHT22;2428;48.732;9.148;2022-07-18T14:07:03;33.50;44.50
4828;DHT22;2428;48.732;9.148;2022-07-18T14:09:30;33.60;44.70
4828;DHT22;2428;48.732;9.148;2022-07-18T14:11:55;33.70;46.80
4828;DHT22;2428;48.732;9.148;2022-07-18T14:14:21;33.60;43.50
4828;DHT22;2428;48.732;9.148;2022-07-18T14:16:47;33.70;42.60
4828;DHT22;2428;48.732;9.148;2022-07-18T14:19:12;33.50;43.40
4828;DHT22;2428;48.732;9.148;2022-07-18T14:21:38;33.40;43.70
4828;DHT22;2428;48.732;9.148;2022-07-18T14:24:04;33.40;45.10
4828;DHT22;2428;48.732;9.148;2022-07-18T14:26:30;33.30;44.60
4828;DHT22;2428;48.732;9.148;2022-07-18T14:28:56;33.00;41.40
4828;DHT22;2428;48.732;9.148;2022-07-18T14:31:22;32.80;42.60
4828;DHT22;2428;48.732;9.148;2022-07-18T14:33:47;32.80;45.50
4828;DHT22;2428;48.732;9.148;2022-07-18T14:36:14;33.00;44.10
4828;DHT22;2428;48.732;9.148;2022-07-18T14:38:40;32.60;42.00
4828;DHT22;2428;48.732;9.148;2022-07-18T14:41:06;32.50;46.40
4828;DHT22;2428;48.732;9.148;2022-07-18T14:43:32;32.70;47.50
4828;DHT22;2428;48.732;9.148;2022-07-18T14:45:57;32.80;43.50
4828;DHT22;2428;48.732;9.148;2022-07-18T14:48:23;32.60;45.30
4828;DHT22;2428;48.732;9.148;2022-07-18T14:50:49;32.50;44.00
4828;DHT22;2428;48.732;9.148;2022-07-18T14:53:14;32.60;46.30
4828;DHT22;2428;48.732;9.148;2022-07-18T14:55:40;32.80;46.30
4828;DHT22;2428;48.732;9.148;2022-07-18T14:58:06;32.60;42.30
4828;DHT22;2428;48.732;9.148;2022-07-18T15:00:31;32.20;42.90
4828;DHT22;2428;48.732;9.148;2022-07-18T15:02:57;32.20;41.90
4828;DHT22;2428;48.732;9.148;2022-07-18T15:05:23;32.40;44.10
4828;DHT22;2428;48.732;9.148;2022-07-18T15:07:48;32.40;42.90
4828;DHT22;2428;48.732;9.148;2022-07-18T15:10:14;32.60;45.50
4828;DHT22;2428;48.732;9.148;2022-07-18T15:12:40;32.70;45.70
4828;DHT22;2428;48.732;9.148;2022-07-18T15:15:07;32.70;45.40
4828;DHT22;2428;48.732;9.148;2022-07-18T15:17:42;32.80;43.60
4828;DHT22;2428;48.732;9.148;2022-07-18T15:20:08;32.90;44.40
4828;DHT22;2428;48.732;9.148;2022-07-18T15:22:34;32.90;45.50
4828;DHT22;2428;48.732;9.148;2022-07-18T15:25:00;33.00;46.30
4828;DHT22;2428;48.732;9.148;2022-07-18T15:27:25;33.00;45.00
4828;DHT22;2428;48.732;9.148;2022-07-18T15:29:51;33.00;44.40
4828;DHT22;2428;48.732;9.148;2022-07-18T15:32:17;33.00;43.50
4828;DHT22;2428;48.732;9.148;2022-07-18T15:34:43;32.70;44.40
4828;DHT22;2428;48.732;9.148;2022-07-18T15:37:08;32.60;44.50
4828;DHT22;2428;48.732;9.148;2022-07-18T15:39:34;32.30;44.00
4828;DHT22;2428;48.732;9.148;2022-07-18T15:42:00;32.30;46.80
4828;DHT22;2428;48.732;9.148;2022-07-18T15:44:26;32.30;46.60
4828;DHT22;2428;48.732;9.148;2022-07-18T15:46:52;32.30;46.30
4828;DHT22;2428;48.732;9.148;2022-07-18T15:49:18;32.30;44.40
4828;DHT22;2428;48.732;9.148;2022-07-18T15:51:44;32.30;46.60
4828;DHT22;2428;48.732;9.148;2022-07-18T15:54:15;32.40;47.50
4828;DHT22;2428;48.732;9.148;2022-07-18T15:56:42;32.20;44.80
4828;DHT22;2428;48.732;9.148;2022-07-18T15:59:08;32.00;44.10
4828;DHT22;2428;48.732;9.148;2022-07-18T16:01:34;31.80;46.40
4828;DHT22;2428;48.732;9.148;2022-07-18T16:04:00;31.80;46.00
4828;DHT22;2428;48.732;9.148;2022-07-18T16:06:26;31.70;45.00
4828;DHT22;2428;48.732;9.148;2022-07-18T16:08:52;31.60;46.50
4828;DHT22;2428;48.732;9.148;2022-07-18T16:11:18;31.70;45.70
4828;DHT22;2428;48.732;9.148;2022-07-18T16:13:43;31.70;47.00
4828;DHT22;2428;48.732;9.148;2022-07-18T16:16:09;31.60;45.80
4828;DHT22;2428;48.732;9.148;2022-07-18T16:18:34;31.60;45.60
4828;DHT22;2428;48.732;9.148;2022-07-18T16:21:00;31.40;45.80
4828;DHT22;2428;48.732;9.148;2022-07-18T16:23:26;31.30;46.30
4828;DHT22;2428;48.732;9.148;2022-07-18T16:25:51;31.30;46.90
4828;DHT22;2428;48.732;9.148;2022-07-18T16:28:17;31.20;47.00
4828;DHT22;2428;48.732;9.148;2022-07-18T16:30:43;31.20;46.50
4828;DHT22;2428;48.732;9.148;2022-07-18T16:33:09;31.20;47.10
4828;DHT22;2428;48.732;9.148;2022-07-18T16:35:34;31.10;46.60
4828;DHT22;2428;48.732;9.148;2022-07-18T16:38:02;31.10;47.40
4828;DHT22;2428;48.732;9.148;2022-07-18T16:40:28;31.10;45.40
4828;DHT22;2428;48.732;9.148;2022-07-18T16:42:54;31.10;47.30
4828;DHT22;2428;48.732;9.148;2022-07-18T16:45:19;31.00;46.90
4828;DHT22;2428;48.732;9.148;2022-07-18T16:47:45;31.00;46.10
4828;DHT22;2428;48.732;9.148;2022-07-18T16:50:11;30.90;46.60
4828;DHT22;2428;48.732;9.148;2022-07-18T16:52:38;30.80;49.30
4828;DHT22;2428;48.732;9.148;2022-07-18T16:55:06;30.80;47.90
4828;DHT22;2428;48.732;9.148;2022-07-18T16:57:31;30.70;46.20
4828;DHT22;2428;48.732;9.148;2022-07-18T16:59:57;30.60;49.40
4828;DHT22;2428;48.732;9.148;2022-07-18T17:02:23;30.50;47.00
4828;DHT22;2428;48.732;9.148;2022-07-18T17:04:49;30.50;47.50
4828;DHT22;2428;48.732;9.148;2022-07-18T17:07:15;30.50;47.70
4828;DHT22;2428;48.732;9.148;2022-07-18T17:09:42;30.30;47.70